createdAt,value
2022-11-27T00:01:37.863Z,97374.96
2022-11-27T00:04:07.732Z,97378.06
2022-11-27T00:06:36.777Z,97381.00
2022-11-27T00:09:08.373Z,97380.84
2022-11-27T00:11:39.456Z,97384.94
2022-11-27T00:14:13.596Z,97385.79
2022-11-27T00:16:42.172Z,97384.44
2022-11-27T00:19:11.565Z,97387.51
2022-11-27T00:21:39.710Z,97381.05
2022-11-27T00:24:09.288Z,97383.47
2022-11-27T00:26:38.294Z,97380.96
2022-11-27T00:29:07.697Z,97385.95
2022-11-27T00:31:38.524Z,97382.39
2022-11-27T00:34:08.730Z,97383.23
2022-11-27T00:36:38.601Z,97383.75
2022-11-27T00:39:07.039Z,97381.08
2022-11-27T00:41:35.800Z,97377.85
2022-11-27T00:44:04.593Z,97375.46
2022-11-27T00:46:34.644Z,97375.10
2022-11-27T00:49:05.770Z,97374.94
2022-11-27T00:51:34.830Z,97379.02
2022-11-27T00:54:03.520Z,97375.29
2022-11-27T00:56:54.449Z,97374.13
2022-11-27T00:59:22.500Z,97372.11
2022-11-27T01:01:50.770Z,97368.88
2022-11-27T01:04:18.890Z,97368.37
2022-11-27T01:06:47.086Z,97368.22
2022-11-27T01:09:15.994Z,97371.46
2022-11-27T01:11:44.286Z,97376.92
2022-11-27T01:14:16.623Z,97379.67
2022-11-27T01:16:44.709Z,97384.67
2022-11-27T01:19:14.238Z,97377.70
2022-11-27T01:21:42.542Z,97371.90
2022-11-27T01:24:13.086Z,97370.17
2022-11-27T01:26:42.103Z,97367.94
2022-11-27T01:29:11.172Z,97366.23
2022-11-27T01:31:39.541Z,97366.23
2022-11-27T01:34:12.809Z,97363.84
2022-11-27T01:36:41.254Z,97363.30
2022-11-27T01:39:15.201Z,97362.72
2022-11-27T01:41:43.666Z,97363.36
2022-11-27T01:44:23.582Z,97366.46
2022-11-27T01:46:51.780Z,97364.27
2022-11-27T01:49:30.200Z,97365.98
2022-11-27T01:52:21.250Z,97367.86
2022-11-27T01:54:57.725Z,97367.70
2022-11-27T01:57:43.020Z,97365.19
2022-11-27T02:00:14.191Z,97363.63
2022-11-27T02:02:43.637Z,97363.95
2022-11-27T02:05:17.682Z,97364.30
2022-11-27T02:07:46.849Z,97360.88
2022-11-27T02:10:15.740Z,97357.09
2022-11-27T02:12:53.427Z,97355.52
2022-11-27T02:15:56.844Z,97355.50
2022-11-27T02:18:39.753Z,97360.25
2022-11-27T02:21:35.498Z,97365.84
2022-11-27T02:24:18.851Z,97367.00
2022-11-27T02:27:01.980Z,97367.86
2022-11-27T02:29:33.748Z,97373.33
2022-11-27T02:32:11.099Z,97373.16
2022-11-27T02:34:45.611Z,97371.45
2022-11-27T02:37:22.451Z,97377.24
2022-11-27T02:40:14.488Z,97377.60
2022-11-27T02:43:06.177Z,97382.25
2022-11-27T02:45:46.607Z,97388.25
2022-11-27T02:48:18.522Z,97390.48
2022-11-27T02:50:51.051Z,97390.48
2022-11-27T02:53:29.864Z,97392.70
2022-11-27T02:55:58.679Z,97387.42
2022-11-27T02:58:29.428Z,97389.64
2022-11-27T03:00:59.106Z,97392.70
2022-11-27T03:03:32.729Z,97392.31
2022-11-27T03:06:06.061Z,97389.71
2022-11-27T03:08:43.250Z,97393.08
2022-11-27T03:11:14.705Z,97392.42
2022-11-27T03:13:55.140Z,97394.12
2022-11-27T03:16:32.188Z,97394.61
2022-11-27T03:19:18.437Z,97394.24
2022-11-27T03:21:52.655Z,97392.38
2022-11-27T03:24:20.772Z,97395.44
2022-11-27T03:26:49.137Z,97392.54
2022-11-27T03:29:25.101Z,97393.39
2022-11-27T03:31:53.427Z,97393.75
2022-11-27T03:34:21.589Z,97389.65
2022-11-27T03:36:49.614Z,97389.11
2022-11-27T03:39:18.941Z,97388.72
2022-11-27T03:42:08.852Z,97387.36
2022-11-27T03:44:52.290Z,97385.52
2022-11-27T03:47:20.447Z,97389.58
2022-11-27T03:50:05.101Z,97389.05
2022-11-27T03:52:56.128Z,97389.55
2022-11-27T03:55:35.962Z,97389.92
2022-11-27T03:58:09.545Z,97390.95
2022-11-27T04:00:43.734Z,97395.03
2022-11-27T04:03:13.462Z,97395.21
2022-11-27T04:05:41.540Z,97400.37
2022-11-27T04:08:09.824Z,97398.66
2022-11-27T04:10:37.864Z,97394.92
2022-11-27T04:13:05.872Z,97396.65
2022-11-27T04:15:34.095Z,97392.23
2022-11-27T04:18:02.171Z,97394.63
2022-11-27T04:20:30.306Z,97397.90
2022-11-27T04:22:58.428Z,97401.85
2022-11-27T04:25:27.416Z,97400.31
2022-11-27T04:27:55.903Z,97403.21
2022-11-27T04:30:24.240Z,97403.71
2022-11-27T04:32:52.298Z,97404.20
2022-11-27T04:35:20.576Z,97401.78
2022-11-27T04:37:48.538Z,97402.27
2022-11-27T04:40:16.817Z,97401.40
2022-11-27T04:42:46.389Z,97401.23
2022-11-27T04:45:14.578Z,97399.68
2022-11-27T04:47:42.632Z,97396.43
2022-11-27T04:50:11.056Z,97392.86
2022-11-27T04:52:39.487Z,97385.34
2022-11-27T04:55:08.534Z,97381.73
2022-11-27T04:57:36.882Z,97380.00
2022-11-27T05:00:06.816Z,97377.77
2022-11-27T05:02:35.080Z,97385.80
2022-11-27T05:05:03.418Z,97388.37
2022-11-27T05:07:31.512Z,97386.31
2022-11-27T05:09:59.588Z,97387.34
2022-11-27T05:12:27.648Z,97390.11
2022-11-27T05:14:55.796Z,97392.52
2022-11-27T05:17:24.037Z,97390.14
2022-11-27T05:19:52.243Z,97389.28
2022-11-27T05:22:20.287Z,97389.79
2022-11-27T05:24:48.301Z,97393.54
2022-11-27T05:27:16.374Z,97397.30
2022-11-27T05:29:44.499Z,97394.70
2022-11-27T05:32:12.556Z,97395.89
2022-11-27T05:34:40.842Z,97398.95
2022-11-27T05:37:09.135Z,97397.24
2022-11-27T05:39:37.155Z,97399.48
2022-11-27T05:42:05.330Z,97401.84
2022-11-27T05:44:33.397Z,97404.25
2022-11-27T05:47:01.527Z,97400.17
2022-11-27T05:49:29.576Z,97399.52
2022-11-27T05:51:57.655Z,97396.11
2022-11-27T05:54:25.732Z,97396.81
2022-11-27T05:56:53.762Z,97395.61
2022-11-27T05:59:21.783Z,97393.05
2022-11-27T06:01:49.874Z,97389.77
2022-11-27T06:04:18.192Z,97385.30
2022-11-27T06:06:46.538Z,97385.98
2022-11-27T06:09:15.372Z,97383.77
2022-11-27T06:11:43.526Z,97383.58
2022-11-27T06:14:11.920Z,97386.80
2022-11-27T06:16:40.101Z,97380.45
2022-11-27T06:19:09.170Z,97384.02
2022-11-27T06:21:37.635Z,97384.85
2022-11-27T06:24:05.920Z,97387.76
2022-11-27T06:26:34.416Z,97393.05
2022-11-27T06:29:02.821Z,97391.34
2022-11-27T06:31:32.728Z,97388.43
2022-11-27T06:34:01.565Z,97390.64
2022-11-27T06:36:40.883Z,97389.29
2022-11-27T06:39:11.911Z,97387.42
2022-11-27T06:41:39.991Z,97391.36
2022-11-27T06:44:10.569Z,97392.39
2022-11-27T06:46:38.952Z,97392.05
2022-11-27T06:49:07.012Z,97392.09
2022-11-27T06:51:35.240Z,97385.96
2022-11-27T06:54:03.926Z,97388.02
2022-11-27T06:56:32.965Z,97384.61
2022-11-27T06:59:02.259Z,97382.68
2022-11-27T07:01:31.935Z,97383.36
2022-11-27T07:04:00.493Z,97381.84
2022-11-27T07:06:28.914Z,97376.54
2022-11-27T07:08:57.042Z,97377.55
2022-11-27T07:11:28.555Z,97379.61
2022-11-27T07:13:59.655Z,97382.16
2022-11-27T07:16:30.792Z,97384.36
2022-11-27T07:19:01.580Z,97387.63
2022-11-27T07:21:29.948Z,97391.55
2022-11-27T07:23:58.725Z,97391.53
2022-11-27T07:26:30.132Z,97392.55
2022-11-27T07:28:58.829Z,97392.23
2022-11-27T07:31:29.021Z,97394.25
2022-11-27T07:33:58.678Z,97397.13
2022-11-27T07:36:30.261Z,97399.68
2022-11-27T07:38:58.503Z,97397.27
2022-11-27T07:41:32.140Z,97400.16
2022-11-27T07:44:00.698Z,97397.95
2022-11-27T07:46:30.242Z,97399.30
2022-11-27T07:49:00.784Z,97400.77
2022-11-27T07:51:29.708Z,97397.02
2022-11-27T07:54:00.008Z,97399.34
2022-11-27T07:56:28.320Z,97404.09
2022-11-27T07:58:58.166Z,97406.39
2022-11-27T08:01:26.292Z,97403.45
2022-11-27T08:03:54.529Z,97402.87
2022-11-27T08:06:25.581Z,97406.56
2022-11-27T08:08:56.063Z,97407.05
2022-11-27T08:11:30.408Z,97406.17
2022-11-27T08:14:03.839Z,97402.70
2022-11-27T08:16:34.077Z,97401.14
2022-11-27T08:19:02.439Z,97396.64
2022-11-27T08:21:33.073Z,97389.77
2022-11-27T08:24:01.151Z,97382.77
2022-11-27T08:26:29.686Z,97385.20
2022-11-27T08:28:58.533Z,97385.91
2022-11-27T08:31:26.889Z,97391.82
2022-11-27T08:33:55.112Z,97392.66
2022-11-27T08:36:28.116Z,97399.58
2022-11-27T08:38:56.386Z,97400.88
2022-11-27T08:41:24.544Z,97398.76
2022-11-27T08:43:52.649Z,97394.10
2022-11-27T08:46:20.703Z,97394.91
2022-11-27T08:48:48.770Z,97396.62
2022-11-27T08:51:16.901Z,97398.46
2022-11-27T08:53:45.930Z,97399.06
2022-11-27T08:56:20.073Z,97398.11
2022-11-27T08:58:49.840Z,97393.96
2022-11-27T09:01:19.719Z,97394.91
2022-11-27T09:03:48.854Z,97398.82
2022-11-27T09:06:21.425Z,97403.35
2022-11-27T09:08:49.954Z,97408.90
2022-11-27T09:11:20.510Z,97403.58
2022-11-27T09:13:49.171Z,97400.11
2022-11-27T09:16:19.743Z,97401.32
2022-11-27T09:18:50.325Z,97400.96
2022-11-27T09:21:22.003Z,97402.79
2022-11-27T09:23:55.548Z,97403.90
2022-11-27T09:26:25.744Z,97403.98
2022-11-27T09:28:55.354Z,97400.98
2022-11-27T09:31:23.618Z,97400.96
2022-11-27T09:33:52.326Z,97405.22
2022-11-27T09:36:23.655Z,97400.88
2022-11-27T09:38:52.198Z,97403.59
2022-11-27T09:41:39.467Z,97400.98
2022-11-27T09:44:29.880Z,97395.48
2022-11-27T09:47:12.486Z,97396.99
2022-11-27T09:50:06.105Z,97399.20
2022-11-27T09:52:40.017Z,97395.91
2022-11-27T09:55:21.715Z,97394.34
2022-11-27T09:58:03.205Z,97393.06
2022-11-27T10:00:31.480Z,97389.13
2022-11-27T10:03:00.527Z,97383.75
2022-11-27T10:05:43.702Z,97383.02
2022-11-27T10:08:29.197Z,97380.20
2022-11-27T10:11:12.111Z,97378.05
2022-11-27T10:14:28.772Z,97376.81
2022-11-27T10:17:08.778Z,97372.54
2022-11-27T10:19:49.246Z,97371.85
2022-11-27T10:22:54.945Z,97370.43
2022-11-27T10:25:28.910Z,97372.04
2022-11-27T10:28:18.745Z,97368.47
2022-11-27T10:31:17.326Z,97366.83
2022-11-27T10:33:59.075Z,97367.09
2022-11-27T10:36:39.348Z,97362.34
2022-11-27T10:39:16.142Z,97358.02
2022-11-27T10:41:54.258Z,97361.20
2022-11-27T10:44:31.719Z,97354.61
2022-11-27T10:47:05.843Z,97355.19
2022-11-27T10:49:37.074Z,97353.52
2022-11-27T10:52:05.215Z,97343.88
2022-11-27T10:54:38.546Z,97345.65
2022-11-27T10:57:44.073Z,97344.42
2022-11-27T11:00:20.994Z,97339.05
2022-11-27T11:02:49.730Z,97337.66
2022-11-27T11:06:11.720Z,97338.61
2022-11-27T11:08:17.084Z,97334.77
2022-11-27T11:10:57.796Z,97330.42
2022-11-27T11:13:30.268Z,97327.51
2022-11-27T11:16:14.756Z,97323.33
2022-11-27T11:18:53.545Z,97323.60
2022-11-27T11:21:41.760Z,97320.17
2022-11-27T11:24:28.592Z,97321.92
2022-11-27T11:27:04.838Z,97319.43
2022-11-27T11:29:37.727Z,97317.24
2022-11-27T11:32:16.476Z,97316.27
2022-11-27T11:34:55.015Z,97314.85
2022-11-27T11:37:36.304Z,97314.11
2022-11-27T11:40:18.303Z,97312.69
2022-11-27T11:42:59.426Z,97310.27
2022-11-27T11:45:33.310Z,97311.77
2022-11-27T11:48:20.627Z,97307.07
2022-11-27T11:50:58.443Z,97309.24
2022-11-27T11:53:40.718Z,97310.86
2022-11-27T11:56:38.029Z,97311.48
2022-11-27T11:59:20.149Z,97308.77
2022-11-27T12:02:23.413Z,97307.39
2022-11-27T12:05:03.029Z,97305.50
2022-11-27T12:07:48.923Z,97303.89
2022-11-27T12:10:33.391Z,97302.30
2022-11-27T12:13:06.225Z,97299.55
2022-11-27T12:15:56.129Z,97295.35
2022-11-27T12:18:45.723Z,97293.01
2022-11-27T12:21:23.193Z,97286.12
2022-11-27T12:24:12.326Z,97286.55
2022-11-27T12:26:46.017Z,97282.48
2022-11-27T12:29:39.032Z,97280.77
2022-11-27T12:32:28.511Z,97280.31
2022-11-27T12:35:25.658Z,97282.14
2022-11-27T12:37:53.633Z,97287.68
2022-11-27T12:40:52.952Z,97287.61
2022-11-27T12:43:25.737Z,97286.56
2022-11-27T12:46:05.020Z,97289.01
2022-11-27T12:48:56.131Z,97286.05
2022-11-27T12:51:32.279Z,97284.87
2022-11-27T12:54:03.368Z,97285.53
2022-11-27T12:56:55.074Z,97279.70
2022-11-27T12:59:33.567Z,97278.15
2022-11-27T13:02:23.805Z,97278.77
2022-11-27T13:05:03.808Z,97277.52
2022-11-27T13:07:47.167Z,97270.15
2022-11-27T13:10:18.864Z,97266.22
2022-11-27T13:12:57.749Z,97263.64
2022-11-27T13:15:35.119Z,97261.20
2022-11-27T13:18:14.492Z,97261.59
2022-11-27T13:20:46.238Z,97257.77
2022-11-27T13:23:16.393Z,97260.39
2022-11-27T13:25:51.522Z,97263.99
2022-11-27T13:28:37.771Z,97268.52
2022-11-27T13:31:06.974Z,97266.52
2022-11-27T13:33:42.188Z,97266.15
2022-11-27T13:36:45.017Z,97264.75
2022-11-27T13:39:24.711Z,97265.98
2022-11-27T13:42:20.233Z,97266.02
2022-11-27T13:44:59.766Z,97268.29
2022-11-27T13:47:30.569Z,97272.06
2022-11-27T13:50:20.540Z,97271.42
2022-11-27T13:52:54.887Z,97269.27
2022-11-27T13:55:38.683Z,97271.70
2022-11-27T13:58:08.498Z,97269.77
2022-11-27T14:00:40.853Z,97268.06
2022-11-27T14:03:24.630Z,97262.73
2022-11-27T14:05:53.478Z,97259.30
2022-11-27T14:08:21.686Z,97260.13
2022-11-27T14:10:54.526Z,97260.36
2022-11-27T14:13:33.133Z,97261.73
2022-11-27T14:16:04.958Z,97265.20
2022-11-27T14:18:34.470Z,97266.45
2022-11-27T14:21:04.626Z,97269.64
2022-11-27T14:23:37.027Z,97275.20
2022-11-27T14:26:07.667Z,97270.59
2022-11-27T14:28:43.290Z,97264.34
2022-11-27T14:31:33.502Z,97264.73
2022-11-27T14:34:23.177Z,97262.41
2022-11-27T14:36:54.621Z,97265.73
2022-11-27T14:39:29.558Z,97259.79
2022-11-27T14:42:04.176Z,97259.55
2022-11-27T14:44:32.701Z,97261.84
2022-11-27T14:47:04.091Z,97260.89
2022-11-27T14:49:33.910Z,97256.81
2022-11-27T14:52:08.831Z,97255.33
2022-11-27T14:54:40.781Z,97257.39
2022-11-27T14:57:17.210Z,97251.77
2022-11-27T14:59:45.418Z,97248.88
2022-11-27T15:02:13.432Z,97239.34
2022-11-27T15:04:43.183Z,97243.33
2022-11-27T15:07:35.297Z,97243.36
2022-11-27T15:10:20.537Z,97243.09
2022-11-27T15:12:49.573Z,97245.21
2022-11-27T15:15:22.752Z,97242.55
2022-11-27T15:17:55.440Z,97242.43
2022-11-27T15:20:25.971Z,97242.39
2022-11-27T15:22:56.549Z,97237.99
2022-11-27T15:25:36.366Z,97237.03
2022-11-27T15:28:28.633Z,97235.01
2022-11-27T15:30:57.357Z,97237.27
2022-11-27T15:33:30.615Z,97239.68
2022-11-27T15:36:21.407Z,97240.87
2022-11-27T15:38:52.732Z,97244.52
2022-11-27T15:41:22.130Z,97244.89
2022-11-27T15:43:50.337Z,97243.42
2022-11-27T15:46:25.234Z,97240.23
2022-11-27T15:48:53.787Z,97240.60
2022-11-27T15:51:22.111Z,97236.85
2022-11-27T15:53:50.567Z,97240.62
2022-11-27T15:56:19.668Z,97243.39
2022-11-27T15:58:47.921Z,97244.62
2022-11-27T16:01:16.038Z,97235.91
2022-11-27T16:03:44.145Z,97232.48
2022-11-27T16:06:12.246Z,97234.90
2022-11-27T16:08:40.374Z,97235.95
2022-11-27T16:11:14.718Z,97232.90
2022-11-27T16:13:43.468Z,97233.60
2022-11-27T16:16:12.336Z,97235.67
2022-11-27T16:18:40.477Z,97232.08
2022-11-27T16:21:11.302Z,97235.70
2022-11-27T16:23:43.742Z,97234.02
2022-11-27T16:26:13.599Z,97230.84
2022-11-27T16:28:41.967Z,97220.38
2022-11-27T16:31:13.729Z,97229.10
2022-11-27T16:33:42.124Z,97230.36
2022-11-27T16:36:13.510Z,97225.96
2022-11-27T16:38:43.212Z,97220.73
2022-11-27T16:41:14.120Z,97216.38
2022-11-27T16:43:45.849Z,97215.09
2022-11-27T16:46:17.990Z,97213.66
2022-11-27T16:48:48.086Z,97209.54
2022-11-27T16:51:18.765Z,97209.76
2022-11-27T16:53:49.691Z,97207.85
2022-11-27T16:56:20.419Z,97216.89
2022-11-27T16:58:48.821Z,97212.61
2022-11-27T17:01:30.590Z,97213.27
2022-11-27T17:03:59.777Z,97210.70
2022-11-27T17:06:30.832Z,97209.66
2022-11-27T17:09:00.892Z,97208.45
2022-11-27T17:11:33.831Z,97208.63
2022-11-27T17:14:08.104Z,97207.80
2022-11-27T17:16:42.837Z,97206.09
2022-11-27T17:19:16.166Z,97201.80
2022-11-27T17:21:45.924Z,97196.50
2022-11-27T17:24:16.268Z,97192.40
2022-11-27T17:26:47.718Z,97191.39
2022-11-27T17:29:21.952Z,97190.70
2022-11-27T17:31:50.956Z,97190.40
2022-11-27T17:34:20.827Z,97190.21
2022-11-27T17:36:53.804Z,97187.52
2022-11-27T17:39:22.460Z,97184.27
2022-11-27T17:41:50.549Z,97181.88
2022-11-27T17:44:21.268Z,97177.67
2022-11-27T17:46:50.936Z,97174.52
2022-11-27T17:49:22.112Z,97171.52
2022-11-27T17:51:51.677Z,97169.85
2022-11-27T17:54:21.157Z,97165.27
2022-11-27T17:56:51.588Z,97161.37
2022-11-27T17:59:20.913Z,97156.45
2022-11-27T18:01:51.422Z,97154.91
2022-11-27T18:04:20.542Z,97156.11
2022-11-27T18:06:48.921Z,97160.38
2022-11-27T18:09:17.652Z,97163.42
2022-11-27T18:11:46.064Z,97156.20
2022-11-27T18:14:14.236Z,97153.27
2022-11-27T18:16:42.667Z,97145.40
2022-11-27T18:19:11.585Z,97142.38
2022-11-27T18:21:40.894Z,97138.33
2022-11-27T18:24:25.263Z,97140.08
2022-11-27T18:27:10.135Z,97136.22
2022-11-27T18:29:40.874Z,97132.48
2022-11-27T18:32:09.882Z,97128.69
2022-11-27T18:34:38.359Z,97130.94
2022-11-27T18:37:11.461Z,97125.64
2022-11-27T18:39:40.797Z,97126.83
2022-11-27T18:42:09.201Z,97124.95
2022-11-27T18:44:44.337Z,97125.35
2022-11-27T18:47:17.318Z,97120.42
2022-11-27T18:49:48.696Z,97119.92
2022-11-27T18:52:17.496Z,97119.83
2022-11-27T18:54:45.600Z,97122.23
2022-11-27T18:57:13.925Z,97127.05
2022-11-27T18:59:45.559Z,97130.66
2022-11-27T19:02:13.944Z,97136.14
2022-11-27T19:04:44.525Z,97138.55
2022-11-27T19:07:13.109Z,97141.95
2022-11-27T19:09:41.664Z,97139.86
2022-11-27T19:12:10.385Z,97141.23
2022-11-27T19:14:39.466Z,97138.66
2022-11-27T19:17:07.802Z,97140.39
2022-11-27T19:22:24.331Z,97139.52
2022-11-27T19:24:53.153Z,97136.83
2022-11-27T19:27:21.284Z,97136.00
2022-11-27T19:29:49.349Z,97135.21
2022-11-27T19:32:17.410Z,97132.65
2022-11-27T19:34:45.531Z,97131.61
2022-11-27T19:37:13.656Z,97124.60
2022-11-27T19:39:42.171Z,97119.70
2022-11-27T19:42:10.303Z,97118.20
2022-11-27T19:44:38.970Z,97119.41
2022-11-27T19:47:09.537Z,97119.60
2022-11-27T19:49:37.741Z,97122.48
2022-11-27T19:52:06.132Z,97119.40
2022-11-27T19:54:34.928Z,97113.39
2022-11-27T19:57:04.407Z,97112.40
2022-11-27T19:59:32.628Z,97107.65
2022-11-27T20:02:01.497Z,97103.58
2022-11-27T20:04:29.744Z,97098.98
2022-11-27T20:06:57.919Z,97092.68
2022-11-27T20:09:26.204Z,97083.65
2022-11-27T20:11:54.453Z,97081.99
2022-11-27T20:14:22.546Z,97081.04
2022-11-27T20:16:51.083Z,97077.48
2022-11-27T20:19:19.487Z,97076.33
2022-11-27T20:21:47.784Z,97078.58
2022-11-27T20:24:15.854Z,97075.88
2022-11-27T20:26:45.325Z,97075.05
2022-11-27T20:29:13.686Z,97078.81
2022-11-27T20:31:43.921Z,97074.72
2022-11-27T20:34:18.919Z,97067.41
2022-11-27T20:36:49.151Z,97064.55
2022-11-27T20:39:21.276Z,97063.39
2022-11-27T20:41:52.046Z,97068.23
2022-11-27T20:44:22.646Z,97071.50
2022-11-27T20:46:51.505Z,97075.94
2022-11-27T20:49:20.717Z,97070.96
2022-11-27T20:51:51.093Z,97070.47
2022-11-27T20:54:21.868Z,97071.34
2022-11-27T20:56:51.923Z,97069.09
2022-11-27T20:59:21.726Z,97071.96
2022-11-27T21:01:51.172Z,97071.42
2022-11-27T21:04:26.564Z,97069.71
2022-11-27T21:06:58.699Z,97069.29
2022-11-27T21:09:27.076Z,97077.08
2022-11-27T21:11:55.493Z,97072.27
2022-11-27T21:14:24.509Z,97069.20
2022-11-27T21:16:53.979Z,97074.98
2022-11-27T21:19:27.456Z,97075.83
2022-11-27T21:21:57.293Z,97070.75
2022-11-27T21:24:29.009Z,97067.04
2022-11-27T21:26:57.244Z,97068.08
2022-11-27T21:29:30.950Z,97062.64
2022-11-27T21:32:02.900Z,97062.69
2022-11-27T21:34:34.005Z,97059.85
2022-11-27T21:37:04.647Z,97061.77
2022-11-27T21:39:33.486Z,97063.19
2022-11-27T21:42:04.607Z,97060.30
2022-11-27T21:44:32.848Z,97056.55
2022-11-27T21:47:01.704Z,97056.77
2022-11-27T21:49:29.952Z,97056.49
2022-11-27T21:52:00.413Z,97056.55
2022-11-27T21:54:33.080Z,97056.90
2022-11-27T21:57:01.286Z,97056.55
2022-11-27T21:59:29.915Z,97057.92
2022-11-27T22:01:58.365Z,97055.04
2022-11-27T22:04:26.600Z,97047.05
2022-11-27T22:06:54.869Z,97044.14
2022-11-27T22:09:22.961Z,97040.39
2022-11-27T22:11:52.448Z,97035.11
2022-11-27T22:14:21.740Z,97036.63
2022-11-27T22:16:49.916Z,97037.33
2022-11-27T22:19:18.380Z,97032.70
2022-11-27T22:21:46.502Z,97032.70
2022-11-27T22:24:19.458Z,97032.88
2022-11-27T22:26:51.959Z,97028.06
2022-11-27T22:29:20.089Z,97021.09
2022-11-27T22:31:48.217Z,97024.33
2022-11-27T22:34:16.522Z,97022.10
2022-11-27T22:36:46.054Z,97018.52
2022-11-27T22:39:14.802Z,97015.10
2022-11-27T22:41:43.647Z,97010.48
2022-11-27T22:44:18.051Z,97007.95
2022-11-27T22:46:46.243Z,97006.77
2022-11-27T22:49:16.600Z,97002.20
2022-11-27T22:51:46.210Z,96999.32
2022-11-27T22:54:17.314Z,96994.73
2022-11-27T22:56:47.054Z,96981.11
2022-11-27T22:59:33.710Z,96968.83
2022-11-27T23:02:04.229Z,96964.47
2022-11-27T23:04:34.135Z,96966.91
2022-11-27T23:07:04.325Z,96964.22
2022-11-27T23:09:33.402Z,96964.95
2022-11-27T23:12:01.892Z,96967.77
2022-11-27T23:14:30.215Z,96972.75
2022-11-27T23:16:58.913Z,96972.28
2022-11-27T23:19:26.985Z,96969.59
2022-11-27T23:21:55.076Z,96969.77
2022-11-27T23:24:23.361Z,96967.95
2022-11-27T23:26:51.501Z,96969.69
2022-11-27T23:29:19.571Z,96965.44
2022-11-27T23:31:48.232Z,96967.45
2022-11-27T23:34:16.881Z,96968.62
2022-11-27T23:36:45.000Z,96968.27
2022-11-27T23:39:14.457Z,96968.59
2022-11-27T23:41:43.001Z,96968.94
2022-11-27T23:44:11.116Z,96959.02
2022-11-27T23:46:39.292Z,96957.64
2022-11-27T23:49:07.811Z,96959.02
2022-11-27T23:51:36.684Z,96958.70
2022-11-27T23:54:09.302Z,96952.72
2022-11-27T23:56:38.455Z,96945.73
2022-11-27T23:59:07.148Z,96944.52
